Time;durP1;ratioP1;P1;durP2;ratioP2;P2;SDS_P1;SDS_P2;PMS_P1;PMS_P2;Temp;Humidity;BMP_temperature;BMP_pressure;BME280_temperature;BME280_humidity;BME280_pressure;Samples;Min_cycle;Max_cycle;Signal;HPM_P1;HPM_P2
2022/09/03 00:00:55;;;;;;;3.13;1.60;;;21.40;37.70;;;;;;5048039;28;20440;-88
2022/09/03 00:03:27;;;;;;;1.70;1.50;;;21.30;38.60;;;;;;5029362;28;20804;-87
2022/09/03 00:06:06;;;;;;;1.80;1.63;;;21.40;37.70;;;;;;5035067;28;20471;-89
2022/09/03 00:08:37;;;;;;;3.17;1.90;;;21.50;38.10;;;;;;5049316;28;20497;-93
2022/09/03 00:11:13;;;;;;;2.10;1.77;;;21.50;37.20;;;;;;5044305;28;20513;-88
2022/09/03 00:13:45;;;;;;;2.67;1.60;;;21.60;36.30;;;;;;5073595;28;20460;-88
2022/09/03 00:16:18;;;;;;;1.63;1.53;;;21.70;37.50;;;;;;5057750;28;20476;-90
2022/09/03 00:18:47;;;;;;;2.10;1.90;;;21.70;37.90;;;;;;5064585;28;20485;-88
2022/09/03 00:21:20;;;;;;;3.30;1.70;;;21.70;37.70;;;;;;5059753;28;20504;-87
2022/09/03 00:23:48;;;;;;;3.80;1.70;;;21.70;37.50;;;;;;5052142;28;20453;-88
2022/09/03 00:26:25;;;;;;;3.13;1.70;;;21.70;37.80;;;;;;5043434;28;20464;-88
2022/09/03 00:28:59;;;;;;;3.03;2.10;;;21.70;37.80;;;;;;5077053;28;20501;-91
2022/09/03 00:31:32;;;;;;;2.03;1.80;;;21.70;37.80;;;;;;5057254;28;20448;-91
2022/09/03 00:34:04;;;;;;;2.03;1.93;;;21.70;38.00;;;;;;5047280;28;21001;-88
2022/09/03 00:36:40;;;;;;;2.83;1.87;;;21.70;38.20;;;;;;5042178;28;20485;-88
2022/09/03 00:39:10;;;;;;;2.37;1.70;;;21.70;38.40;;;;;;5061936;28;20473;-88
2022/09/03 00:41:40;;;;;;;1.70;1.60;;;21.70;37.60;;;;;;5025045;28;20450;-88
2022/09/03 00:44:26;;;;;;;1.90;1.80;;;21.60;38.10;;;;;;5023663;28;20951;-88
2022/09/03 00:47:00;;;;;;;1.70;1.50;;;21.60;37.70;;;;;;5048090;28;20479;-88
2022/09/03 00:49:42;;;;;;;2.00;1.80;;;21.50;38.30;;;;;;5062795;28;20945;-89
2022/09/03 00:52:20;;;;;;;1.60;1.50;;;21.50;38.00;;;;;;5065003;28;20450;-88
2022/09/03 00:54:55;;;;;;;2.73;1.93;;;21.40;38.30;;;;;;5058653;28;20467;-87
2022/09/03 00:57:32;;;;;;;2.03;1.60;;;21.40;38.10;;;;;;5081494;28;20467;-89
2022/09/03 01:00:05;;;;;;;2.43;1.70;;;21.40;38.30;;;;;;5066251;28;20481;-88
2022/09/03 01:02:45;;;;;;;5.00;1.80;;;21.30;38.30;;;;;;5048793;28;20866;-90
2022/09/03 01:05:25;;;;;;;1.90;1.80;;;21.40;38.30;;;;;;5064122;28;20466;-89
2022/09/03 01:08:04;;;;;;;3.20;1.60;;;21.40;38.30;;;;;;5067878;28;20491;-89
2022/09/03 01:10:38;;;;;;;2.00;1.90;;;21.30;38.10;;;;;;5051681;28;20435;-87
2022/09/03 01:13:13;;;;;;;3.20;2.47;;;21.30;38.30;;;;;;5079697;28;20444;-88
2022/09/03 01:15:48;;;;;;;6.80;2.10;;;21.30;38.50;;;;;;5071529;28;20517;-90
2022/09/03 01:18:23;;;;;;;3.80;1.73;;;21.30;38.50;;;;;;5020375;28;20461;-88
2022/09/03 01:21:05;;;;;;;3.70;2.13;;;21.30;38.60;;;;;;5046927;28;20801;-88
2022/09/03 01:23:53;;;;;;;2.40;2.13;;;21.20;38.40;;;;;;5065859;28;22555;-88
2022/09/03 01:26:30;;;;;;;3.00;1.87;;;21.10;38.70;;;;;;5052742;28;20468;-89
2022/09/03 01:29:10;;;;;;;2.47;2.27;;;21.10;39.20;;;;;;5059844;28;20444;-88
2022/09/03 01:31:47;;;;;;;2.07;1.80;;;21.00;39.50;;;;;;5041132;28;20983;-88
2022/09/03 01:34:24;;;;;;;2.00;1.90;;;21.10;39.60;;;;;;5042374;28;20725;-88
2022/09/03 01:37:02;;;;;;;3.50;1.73;;;21.10;39.50;;;;;;5028027;28;20553;-90
2022/09/03 01:39:41;;;;;;;1.90;1.80;;;21.10;39.60;;;;;;5033943;28;20487;-90
2022/09/03 01:42:18;;;;;;;3.90;2.23;;;21.10;40.10;;;;;;5034307;28;20456;-89
2022/09/03 01:45:07;;;;;;;2.07;1.97;;;21.00;39.80;;;;;;5056423;28;20900;-89
2022/09/03 01:47:50;;;;;;;2.30;2.10;;;21.00;39.80;;;;;;5047526;28;20471;-89
2022/09/03 01:50:32;;;;;;;2.30;1.83;;;21.00;39.90;;;;;;5041502;28;20971;-88
2022/09/03 01:53:07;;;;;;;2.00;1.90;;;21.00;39.60;;;;;;5056530;28;20467;-88
2022/09/03 01:55:44;;;;;;;6.70;1.80;;;21.00;39.80;;;;;;5030860;28;20465;-87
2022/09/03 01:58:15;;;;;;;2.07;1.97;;;20.90;39.30;;;;;;5027721;28;21076;-89
2022/09/03 02:00:49;;;;;;;2.17;1.97;;;20.80;39.10;;;;;;5053580;28;20465;-90
2022/09/03 02:03:16;;;;;;;2.17;1.73;;;20.70;39.80;;;;;;5030177;28;20463;-88
2022/09/03 02:05:45;;;;;;;2.20;2.00;;;20.70;40.30;;;;;;5060276;28;20474;-90
2022/09/03 02:08:12;;;;;;;2.47;2.27;;;20.70;40.90;;;;;;5076704;28;20441;-88
2022/09/03 02:10:43;;;;;;;3.53;2.00;;;20.60;40.40;;;;;;5056319;28;20469;-90
2022/09/03 02:13:15;;;;;;;1.90;1.80;;;20.60;40.30;;;;;;5042332;28;20456;-88
2022/09/03 02:15:46;;;;;;;1.77;1.67;;;20.60;40.40;;;;;;5077639;28;20469;-88
2022/09/03 02:18:18;;;;;;;2.53;2.13;;;20.60;40.50;;;;;;5052601;28;20460;-88
2022/09/03 02:20:46;;;;;;;2.30;1.93;;;20.50;41.10;;;;;;5080817;28;20938;-87
2022/09/03 02:23:13;;;;;;;2.20;2.00;;;20.50;41.10;;;;;;5073918;28;20445;-88
2022/09/03 02:25:45;;;;;;;2.20;2.00;;;20.40;40.70;;;;;;5058647;28;20477;-88
2022/09/03 02:28:13;;;;;;;2.07;1.87;;;20.40;40.80;;;;;;5073513;28;20429;-87
2022/09/03 02:30:40;;;;;;;2.30;2.10;;;20.10;41.00;;;;;;5025261;28;20477;-91
2022/09/03 02:33:09;;;;;;;2.90;2.10;;;19.70;41.60;;;;;;5032901;28;20525;-89
2022/09/03 02:35:36;;;;;;;3.53;2.43;;;19.70;41.90;;;;;;5039662;28;20993;-89
2022/09/03 02:38:11;;;;;;;2.20;2.00;;;19.80;41.30;;;;;;5041023;28;20468;-88
2022/09/03 02:40:39;;;;;;;3.73;1.90;;;19.90;41.40;;;;;;5036333;28;20452;-88
2022/09/03 02:43:11;;;;;;;2.27;2.07;;;20.00;41.30;;;;;;5050734;28;20502;-88
2022/09/03 02:45:45;;;;;;;1.73;1.63;;;20.10;40.80;;;;;;5043809;28;20471;-90
2022/09/03 02:48:15;;;;;;;4.00;1.93;;;20.10;40.60;;;;;;5053726;28;20480;-89
2022/09/03 02:50:43;;;;;;;2.83;2.10;;;20.10;40.20;;;;;;5073253;28;20440;-90
2022/09/03 02:53:10;;;;;;;2.33;2.13;;;20.10;40.70;;;;;;5026525;28;21149;-90
2022/09/03 02:55:38;;;;;;;2.00;1.80;;;20.00;40.80;;;;;;5046419;28;21973;-88
2022/09/03 02:58:07;;;;;;;1.90;1.80;;;20.10;41.50;;;;;;5043164;28;20456;-88
2022/09/03 03:00:35;;;;;;;2.00;1.90;;;20.00;41.50;;;;;;5057667;28;20516;-93
2022/09/03 03:03:03;;;;;;;2.13;1.93;;;20.00;41.60;;;;;;5032936;28;20703;-88
2022/09/03 03:05:41;;;;;;;2.10;1.90;;;19.60;42.10;;;;;;5054064;28;20448;-89
2022/09/03 03:08:09;;;;;;;2.40;2.20;;;19.70;42.70;;;;;;5059770;28;20969;-89
2022/09/03 03:10:36;;;;;;;2.30;2.10;;;19.90;41.90;;;;;;5029102;28;20453;-86
2022/09/03 03:13:03;;;;;;;1.70;1.60;;;20.00;41.40;;;;;;5030273;28;20519;-89
2022/09/03 03:15:30;;;;;;;2.27;2.07;;;20.10;41.70;;;;;;5020153;28;20512;-89
2022/09/03 03:17:58;;;;;;;2.20;1.90;;;20.20;41.90;;;;;;5049006;28;20448;-89
2022/09/03 03:20:25;;;;;;;2.33;1.90;;;20.20;41.60;;;;;;5081529;28;20445;-88
2022/09/03 03:22:53;;;;;;;2.40;2.17;;;20.30;41.70;;;;;;5041649;28;20438;-87
2022/09/03 03:25:20;;;;;;;2.80;2.20;;;20.30;41.60;;;;;;5068817;28;20453;-88
2022/09/03 03:27:47;;;;;;;2.70;1.73;;;20.40;41.50;;;;;;5075111;28;21198;-87
2022/09/03 03:30:14;;;;;;;1.83;1.73;;;20.40;41.50;;;;;;5061093;28;20474;-88
2022/09/03 03:32:41;;;;;;;5.63;1.97;;;20.40;41.40;;;;;;5077308;28;20900;-88
2022/09/03 03:35:10;;;;;;;2.03;1.93;;;20.40;41.40;;;;;;5042662;28;20447;-87
2022/09/03 03:37:37;;;;;;;2.50;2.30;;;20.50;41.40;;;;;;5049692;28;20471;-88
2022/09/03 03:40:07;;;;;;;1.93;1.60;;;20.40;41.30;;;;;;5075759;28;20473;-89
2022/09/03 03:42:34;;;;;;;2.07;1.87;;;20.50;41.40;;;;;;5045149;28;20983;-93
2022/09/03 03:45:01;;;;;;;2.10;1.90;;;20.50;41.40;;;;;;5054313;28;20454;-90
2022/09/03 03:47:29;;;;;;;2.70;1.80;;;20.50;41.20;;;;;;5038735;28;20555;-88
2022/09/03 03:49:57;;;;;;;2.20;2.00;;;20.60;41.30;;;;;;5060215;28;21248;-90
2022/09/03 03:52:24;;;;;;;1.80;1.70;;;20.60;41.10;;;;;;5061299;28;20457;-90
2022/09/03 03:54:51;;;;;;;3.00;2.17;;;20.50;40.90;;;;;;5039541;28;20461;-88
2022/09/03 03:57:21;;;;;;;2.00;1.87;;;20.60;41.20;;;;;;5047768;28;20459;-87
2022/09/03 03:59:48;;;;;;;8.70;2.10;;;20.60;41.60;;;;;;5051122;28;20457;-90
2022/09/03 04:02:16;;;;;;;2.30;2.10;;;20.50;41.40;;;;;;5052649;28;20448;-90
2022/09/03 04:04:43;;;;;;;4.43;2.17;;;20.60;41.40;;;;;;5033325;28;20821;-90
2022/09/03 04:07:10;;;;;;;2.20;2.00;;;20.50;41.40;;;;;;5066075;28;20523;-90
2022/09/03 04:09:37;;;;;;;2.80;1.90;;;20.60;41.50;;;;;;5038373;28;20528;-88
2022/09/03 04:12:07;;;;;;;2.07;1.97;;;20.60;41.60;;;;;;5043746;28;20420;-91
2022/09/03 04:14:35;;;;;;;2.80;1.90;;;20.60;40.90;;;;;;5026528;28;21038;-92
2022/09/03 04:17:03;;;;;;;1.90;1.80;;;20.50;41.20;;;;;;5077972;28;20463;-89
2022/09/03 04:19:30;;;;;;;1.90;1.80;;;20.50;41.30;;;;;;5059395;28;20465;-91
2022/09/03 04:21:57;;;;;;;2.07;1.87;;;20.60;41.30;;;;;;5054441;28;20440;-88
2022/09/03 04:24:24;;;;;;;1.90;1.80;;;20.60;41.70;;;;;;5079233;28;20981;-87
2022/09/03 04:26:52;;;;;;;2.30;2.10;;;20.50;41.20;;;;;;5075927;28;20474;-88
2022/09/03 04:29:20;;;;;;;1.97;1.87;;;20.50;41.10;;;;;;5059541;28;20475;-87
2022/09/03 04:34:29;;;;;;;2.67;2.13;;;20.60;41.40;;;;;;5043330;28;20452;-89
2022/09/03 04:36:57;;;;;;;3.57;2.17;;;20.50;41.20;;;;;;5035593;28;21058;-88
2022/09/03 04:39:25;;;;;;;4.40;2.00;;;20.50;41.40;;;;;;5078294;28;20542;-89
2022/09/03 04:41:52;;;;;;;1.80;1.70;;;20.50;41.20;;;;;;5062604;28;20444;-88
2022/09/03 04:44:19;;;;;;;1.80;1.70;;;20.50;41.40;;;;;;5059516;28;20543;-87
2022/09/03 04:46:48;;;;;;;1.83;1.73;;;20.50;41.70;;;;;;5038485;28;20562;-88
2022/09/03 04:49:15;;;;;;;1.93;1.83;;;20.50;41.70;;;;;;5078029;28;20520;-88
2022/09/03 04:51:42;;;;;;;2.50;2.17;;;20.60;41.80;;;;;;5059081;28;20525;-88
2022/09/03 04:54:10;;;;;;;9.23;2.23;;;20.50;41.80;;;;;;5063430;28;20544;-88
2022/09/03 04:56:39;;;;;;;2.10;1.87;;;20.60;41.70;;;;;;5076727;28;20492;-88
2022/09/03 04:59:08;;;;;;;2.00;1.90;;;20.60;41.50;;;;;;5076651;28;20475;-92
2022/09/03 05:01:37;;;;;;;2.70;1.80;;;20.70;41.60;;;;;;5060776;28;20538;-88
2022/09/03 05:04:08;;;;;;;3.00;1.60;;;20.60;41.40;;;;;;5038672;28;20464;-87
2022/09/03 05:06:36;;;;;;;2.33;1.60;;;20.60;40.80;;;;;;5073211;28;20471;-87
2022/09/03 05:09:04;;;;;;;2.13;1.93;;;20.60;41.10;;;;;;5060865;28;21335;-87
2022/09/03 05:11:32;;;;;;;2.40;1.80;;;20.60;41.30;;;;;;5080404;28;20449;-88
2022/09/03 05:14:00;;;;;;;2.50;2.00;;;20.60;42.00;;;;;;5024003;28;20452;-88
2022/09/03 05:16:29;;;;;;;1.90;1.80;;;20.50;41.60;;;;;;5077070;28;20960;-91
2022/09/03 05:18:59;;;;;;;2.67;1.93;;;20.60;42.20;;;;;;5051817;28;20888;-88
2022/09/03 05:21:28;;;;;;;3.37;2.30;;;20.60;42.10;;;;;;5022861;28;20501;-88
2022/09/03 05:23:55;;;;;;;2.40;1.80;;;20.60;42.10;;;;;;5075943;28;20444;-89
2022/09/03 05:26:24;;;;;;;5.30;2.00;;;20.70;42.10;;;;;;5061525;28;20478;-88
2022/09/03 05:28:54;;;;;;;2.20;2.00;;;20.70;41.80;;;;;;5047090;28;20463;-88
2022/09/03 05:31:22;;;;;;;3.37;1.80;;;20.70;41.80;;;;;;5072971;28;20439;-87
2022/09/03 05:33:50;;;;;;;1.90;1.80;;;20.80;41.60;;;;;;5076091;28;20441;-88
2022/09/03 05:36:19;;;;;;;1.90;1.80;;;20.80;41.70;;;;;;5025988;28;20473;-89
2022/09/03 05:38:47;;;;;;;2.53;2.23;;;20.90;41.30;;;;;;5032571;28;20449;-89
2022/09/03 05:41:16;;;;;;;2.90;1.90;;;20.90;41.90;;;;;;5067724;28;20460;-91
2022/09/03 05:43:43;;;;;;;2.10;1.87;;;20.90;42.20;;;;;;5027562;28;20464;-88
2022/09/03 05:46:12;;;;;;;2.73;1.83;;;20.90;41.60;;;;;;5074612;28;20471;-91
2022/09/03 05:48:41;;;;;;;2.03;1.90;;;20.90;41.60;;;;;;5035053;28;20989;-90
2022/09/03 05:51:10;;;;;;;2.40;2.20;;;21.00;41.60;;;;;;5052195;28;20444;-88
2022/09/03 05:53:38;;;;;;;2.47;1.77;;;21.00;41.60;;;;;;5037805;28;20449;-88
2022/09/03 05:56:10;;;;;;;1.70;1.60;;;20.90;41.30;;;;;;5042914;28;20579;-88
2022/09/03 05:58:40;;;;;;;2.17;1.97;;;20.90;41.30;;;;;;5043362;28;20479;-88
2022/09/03 06:01:11;;;;;;;2.17;1.87;;;20.80;40.90;;;;;;5039406;28;20485;-87
2022/09/03 06:03:38;;;;;;;2.13;2.00;;;20.90;41.20;;;;;;5064850;28;20446;-89
2022/09/03 06:06:06;;;;;;;2.20;1.90;;;21.00;41.10;;;;;;5055268;28;20604;-88
2022/09/03 06:08:33;;;;;;;3.00;2.20;;;21.00;40.80;;;;;;5054228;28;20485;-90
2022/09/03 06:11:00;;;;;;;2.40;1.70;;;21.00;41.00;;;;;;5052810;28;20881;-91
2022/09/03 06:13:29;;;;;;;2.40;1.87;;;20.90;41.10;;;;;;5036969;28;20453;-87
2022/09/03 06:15:57;;;;;;;2.10;1.90;;;20.90;41.00;;;;;;5050131;28;20476;-90
2022/09/03 06:18:24;;;;;;;2.53;2.10;;;21.00;40.90;;;;;;5033012;28;20437;-89
2022/09/03 06:20:54;;;;;;;2.27;2.00;;;21.10;40.90;;;;;;5072834;28;20457;-89
2022/09/03 06:23:22;;;;;;;1.80;1.70;;;21.10;40.90;;;;;;5045019;28;20563;-88
2022/09/03 06:25:48;;;;;;;2.80;2.07;;;21.20;40.60;;;;;;5033895;28;20481;-89
2022/09/03 06:28:15;;;;;;;2.57;2.37;;;21.20;40.80;;;;;;5049021;28;20459;-88
2022/09/03 06:30:44;;;;;;;3.20;1.80;;;21.20;40.50;;;;;;5055050;28;20453;-88
2022/09/03 06:33:11;;;;;;;4.00;2.10;;;21.10;40.70;;;;;;5035648;28;20519;-90
2022/09/03 06:35:38;;;;;;;3.20;2.00;;;21.20;40.90;;;;;;5042127;28;20532;-89
2022/09/03 06:38:05;;;;;;;1.83;1.73;;;21.30;40.70;;;;;;5059771;28;20482;-87
2022/09/03 06:40:32;;;;;;;2.23;2.03;;;21.30;40.50;;;;;;5049227;28;20486;-89
2022/09/03 06:42:59;;;;;;;2.00;1.80;;;21.40;40.60;;;;;;5073938;28;20456;-88
2022/09/03 06:45:26;;;;;;;3.63;1.87;;;21.50;40.80;;;;;;5060252;28;20483;-88
2022/09/03 06:47:55;;;;;;;2.77;1.83;;;21.60;40.70;;;;;;5055134;28;20458;-87
2022/09/03 06:50:22;;;;;;;1.90;1.80;;;21.70;40.40;;;;;;5040357;28;21125;-88
2022/09/03 06:52:53;;;;;;;3.73;2.23;;;21.70;40.10;;;;;;5029349;28;20444;-88
2022/09/03 06:55:21;;;;;;;3.20;2.00;;;21.60;40.00;;;;;;5040799;28;20472;-88
2022/09/03 06:57:49;;;;;;;2.80;1.80;;;21.50;40.00;;;;;;5043965;28;20465;-92
2022/09/03 07:00:17;;;;;;;2.33;2.13;;;21.50;40.30;;;;;;5073282;28;20521;-89
2022/09/03 07:02:44;;;;;;;2.00;1.90;;;21.30;40.60;;;;;;5075498;28;20522;-88
2022/09/03 07:05:12;;;;;;;4.13;1.60;;;21.20;40.80;;;;;;5059142;28;20958;-90
2022/09/03 07:07:39;;;;;;;2.10;2.00;;;21.20;41.00;;;;;;5068873;28;20483;-88
2022/09/03 07:10:09;;;;;;;1.90;1.80;;;21.30;40.90;;;;;;5056466;28;20452;-88
2022/09/03 07:12:36;;;;;;;2.33;2.13;;;21.60;40.60;;;;;;5060900;28;20440;-88
2022/09/03 07:15:04;;;;;;;4.23;2.17;;;21.80;40.50;;;;;;5038018;28;20448;-91
2022/09/03 07:17:31;;;;;;;2.00;1.80;;;21.90;40.10;;;;;;5032098;28;20481;-89
2022/09/03 07:19:58;;;;;;;2.70;2.10;;;21.90;40.10;;;;;;5048130;28;20521;-85
2022/09/03 07:22:26;;;;;;;5.33;1.87;;;21.90;40.00;;;;;;5043061;28;20439;-90
2022/09/03 07:24:53;;;;;;;2.03;1.93;;;21.80;40.00;;;;;;5057764;28;20466;-91
2022/09/03 07:27:20;;;;;;;2.70;1.90;;;21.90;40.80;;;;;;5047069;28;20467;-88
2022/09/03 07:29:47;;;;;;;4.80;2.13;;;22.10;40.00;;;;;;5022208;28;20450;-90
2022/09/03 07:32:14;;;;;;;4.07;2.43;;;22.00;39.70;;;;;;5045281;28;20546;-89
2022/09/03 07:34:41;;;;;;;3.40;1.70;;;21.90;40.20;;;;;;5051672;28;20461;-88
2022/09/03 07:37:08;;;;;;;2.00;1.90;;;21.90;40.40;;;;;;5037775;28;20468;-89
2022/09/03 07:39:36;;;;;;;4.77;2.03;;;21.90;40.50;;;;;;5061517;28;20475;-89
2022/09/03 07:42:04;;;;;;;2.10;2.00;;;22.00;40.30;;;;;;5076426;28;20449;-88
2022/09/03 07:44:31;;;;;;;2.50;2.10;;;22.00;40.20;;;;;;5059742;28;20456;-87
2022/09/03 07:46:59;;;;;;;3.63;1.93;;;22.20;41.00;;;;;;5032264;28;20471;-88
2022/09/03 07:49:26;;;;;;;2.40;2.20;;;22.40;39.50;;;;;;5027906;28;20474;-88
2022/09/03 07:51:53;;;;;;;4.10;1.97;;;22.50;40.00;;;;;;5049655;28;20451;-92
2022/09/03 07:54:22;;;;;;;4.30;2.30;;;22.70;39.70;;;;;;5053081;28;20449;-88
2022/09/03 07:56:51;;;;;;;7.00;2.20;;;22.90;39.60;;;;;;5053189;28;20476;-90
2022/09/03 07:59:18;;;;;;;1.90;1.70;;;22.70;39.20;;;;;;5036267;28;20559;-88
2022/09/03 08:01:45;;;;;;;2.70;2.50;;;22.70;39.10;;;;;;5026394;28;20537;-89
2022/09/03 08:04:12;;;;;;;6.30;2.37;;;22.90;39.20;;;;;;5035591;28;20473;-89
2022/09/03 08:06:39;;;;;;;8.57;2.37;;;23.10;39.10;;;;;;5072793;28;20846;-88
2022/09/03 08:09:10;;;;;;;8.00;2.60;;;23.20;38.70;;;;;;5056431;28;20445;-88
2022/09/03 08:11:39;;;;;;;5.60;2.03;;;23.00;38.70;;;;;;5051661;28;20460;-89
2022/09/03 08:14:09;;;;;;;2.27;1.63;;;23.00;39.10;;;;;;5057610;28;20494;-88
2022/09/03 08:16:38;;;;;;;2.17;2.00;;;23.10;39.10;;;;;;5063124;28;20496;-88
2022/09/03 08:19:06;;;;;;;4.13;2.07;;;23.10;38.40;;;;;;5053190;28;20804;-88
2022/09/03 08:21:33;;;;;;;2.43;2.23;;;22.70;39.20;;;;;;5026236;28;20475;-89
2022/09/03 08:24:01;;;;;;;5.53;2.07;;;22.60;39.80;;;;;;5062892;28;20453;-87
2022/09/03 08:26:30;;;;;;;2.77;2.43;;;22.70;40.00;;;;;;5054495;28;20481;-89
2022/09/03 08:28:57;;;;;;;2.60;2.10;;;22.80;39.40;;;;;;5043920;28;20452;-87
2022/09/03 08:31:27;;;;;;;2.43;2.23;;;22.90;39.90;;;;;;5085973;28;20432;-89
2022/09/03 08:33:56;;;;;;;1.90;1.80;;;23.20;39.00;;;;;;5055056;28;20465;-87
2022/09/03 08:36:25;;;;;;;2.27;2.07;;;23.40;38.40;;;;;;5090511;28;21064;-89
2022/09/03 08:38:54;;;;;;;4.67;2.00;;;23.20;38.00;;;;;;5052578;28;20809;-88
2022/09/03 08:41:33;;;;;;;2.97;2.30;;;23.20;38.70;;;;;;5050990;28;20497;-88
2022/09/03 08:44:17;;;;;;;2.17;1.90;;;23.40;39.00;;;;;;5046032;28;20478;-87
2022/09/03 08:46:51;;;;;;;2.23;2.03;;;23.70;38.70;;;;;;5047716;28;20769;-88
2022/09/03 08:49:24;;;;;;;2.20;2.00;;;23.90;38.20;;;;;;5058642;28;20787;-88
2022/09/03 08:51:56;;;;;;;2.33;2.23;;;24.20;37.60;;;;;;5066596;28;20424;-87
2022/09/03 08:54:28;;;;;;;2.17;1.97;;;24.30;37.40;;;;;;5082417;28;20884;-89
2022/09/03 08:56:59;;;;;;;2.90;2.00;;;24.50;36.90;;;;;;5063821;28;20470;-88
2022/09/03 08:59:26;;;;;;;2.23;2.07;;;24.50;37.30;;;;;;5041132;28;20721;-87
2022/09/03 09:01:59;;;;;;;3.47;1.90;;;24.50;37.00;;;;;;5090892;28;20468;-88
2022/09/03 09:04:49;;;;;;;4.33;2.23;;;24.60;37.60;;;;;;5072737;28;20492;-88
2022/09/03 09:07:22;;;;;;;2.00;1.90;;;24.90;37.00;;;;;;5058273;28;20513;-90
2022/09/03 09:09:57;;;;;;;2.07;1.97;;;24.90;36.80;;;;;;5060426;28;20917;-89
2022/09/03 09:12:37;;;;;;;3.20;2.20;;;24.70;36.60;;;;;;5080637;28;20467;-90
2022/09/03 09:15:10;;;;;;;3.00;2.03;;;24.50;37.60;;;;;;5068768;28;21045;-89
2022/09/03 09:17:56;;;;;;;4.47;2.37;;;24.80;37.30;;;;;;5055915;28;20478;-88
2022/09/03 09:20:32;;;;;;;2.40;2.10;;;24.70;37.40;;;;;;5052355;28;20471;-89
2022/09/03 09:23:04;;;;;;;2.37;1.80;;;24.70;37.50;;;;;;5060974;28;20448;-88
2022/09/03 09:25:32;;;;;;;4.90;2.53;;;25.00;37.20;;;;;;5068951;28;20449;-88
2022/09/03 09:28:01;;;;;;;2.20;2.07;;;25.30;36.90;;;;;;5063575;28;20506;-89
2022/09/03 09:30:30;;;;;;;3.77;2.33;;;25.30;36.10;;;;;;5086354;28;20439;-90
2022/09/03 09:32:59;;;;;;;3.27;2.20;;;25.30;36.10;;;;;;5051844;28;20456;-88
2022/09/03 09:35:26;;;;;;;2.97;2.20;;;25.30;36.30;;;;;;5059207;28;20547;-90
2022/09/03 09:37:55;;;;;;;6.40;2.27;;;25.50;36.30;;;;;;5064550;28;20982;-86
2022/09/03 09:40:31;;;;;;;2.20;2.00;;;25.70;35.90;;;;;;5071393;28;20563;-88
2022/09/03 09:43:06;;;;;;;4.17;2.43;;;25.80;35.60;;;;;;5052045;28;20856;-88
2022/09/03 09:45:34;;;;;;;5.93;2.40;;;26.00;35.30;;;;;;5059005;28;20452;-89
2022/09/03 09:48:15;;;;;;;2.13;1.93;;;26.10;35.70;;;;;;5046838;28;20440;-89
2022/09/03 09:50:42;;;;;;;2.13;2.03;;;25.90;35.20;;;;;;5068450;28;20440;-88
2022/09/03 09:53:15;;;;;;;2.40;1.93;;;25.90;35.30;;;;;;5050375;28;20444;-88
2022/09/03 09:55:56;;;;;;;3.00;2.20;;;26.10;35.60;;;;;;5055354;28;20523;-89
2022/09/03 09:58:25;;;;;;;2.67;2.47;;;26.20;35.50;;;;;;5024039;28;20448;-90
2022/09/03 10:01:11;;;;;;;3.47;2.47;;;26.20;35.50;;;;;;5044653;28;20476;-88
2022/09/03 10:03:48;;;;;;;3.63;2.20;;;26.30;35.20;;;;;;5060844;28;20452;-89
2022/09/03 10:09:09;;;;;;;3.70;2.63;;;26.30;34.30;;;;;;5061041;28;20443;-88
2022/09/03 10:11:39;;;;;;;2.90;1.93;;;26.10;34.60;;;;;;5063806;28;20444;-89
2022/09/03 10:14:11;;;;;;;8.13;2.20;;;25.80;35.50;;;;;;5069590;28;20471;-89
2022/09/03 10:16:44;;;;;;;2.80;2.47;;;25.90;35.70;;;;;;5047353;28;20480;-89
2022/09/03 10:19:17;;;;;;;9.17;2.00;;;25.90;35.80;;;;;;5049816;28;20535;-88
2022/09/03 10:21:52;;;;;;;2.00;1.87;;;25.90;36.00;;;;;;5065440;28;20463;-90
2022/09/03 10:24:44;;;;;;;2.23;2.10;;;26.00;35.80;;;;;;5082020;28;20950;-88
2022/09/03 10:27:14;;;;;;;4.77;2.50;;;26.00;35.40;;;;;;5067796;28;20971;-88
2022/09/03 10:29:42;;;;;;;4.40;2.43;;;26.00;35.90;;;;;;5065435;28;20460;-88
2022/09/03 10:32:25;;;;;;;4.43;2.10;;;25.70;35.80;;;;;;5059712;28;20455;-88
2022/09/03 10:35:03;;;;;;;2.47;2.27;;;25.90;36.40;;;;;;5064541;28;20474;-88
2022/09/03 10:37:39;;;;;;;3.10;2.60;;;25.80;35.50;;;;;;5049117;28;20472;-88
2022/09/03 10:40:29;;;;;;;4.50;2.30;;;25.90;36.00;;;;;;5063038;28;20458;-89
2022/09/03 10:43:09;;;;;;;2.90;2.30;;;25.90;36.00;;;;;;5057713;28;20527;-90
2022/09/03 10:45:42;;;;;;;2.73;2.13;;;26.00;36.10;;;;;;5051923;28;20543;-89
2022/09/03 10:48:35;;;;;;;3.10;2.50;;;25.90;37.40;;;;;;5070002;28;20526;-88
2022/09/03 10:51:06;;;;;;;2.20;1.83;;;25.90;38.90;;;;;;5065584;28;20445;-91
2022/09/03 10:53:49;;;;;;;3.23;2.50;;;25.70;39.10;;;;;;5080291;28;21208;-89
2022/09/03 10:56:22;;;;;;;2.77;2.57;;;25.80;41.90;;;;;;5081362;28;20476;-90
2022/09/03 10:59:04;;;;;;;2.93;2.30;;;25.70;41.50;;;;;;5078481;28;20865;-91
2022/09/03 11:01:37;;;;;;;2.50;2.30;;;25.70;43.70;;;;;;5048450;28;20463;-88
2022/09/03 11:04:20;;;;;;;2.60;2.50;;;25.70;43.90;;;;;;5045618;28;20456;-92
2022/09/03 11:06:52;;;;;;;4.53;2.77;;;25.70;45.70;;;;;;5079156;28;20468;-89
2022/09/03 11:09:24;;;;;;;2.90;2.70;;;25.70;45.80;;;;;;5066950;28;20868;-88
2022/09/03 11:11:55;;;;;;;3.33;2.80;;;25.50;47.10;;;;;;5046060;28;20835;-89
2022/09/03 11:14:32;;;;;;;5.60;3.60;;;25.40;47.60;;;;;;5035354;28;20456;-88
2022/09/03 11:17:03;;;;;;;4.23;3.93;;;25.30;47.70;;;;;;5081225;28;20503;-87
2022/09/03 11:19:35;;;;;;;5.97;4.30;;;25.30;49.40;;;;;;5060761;28;20439;-88
2022/09/03 11:22:05;;;;;;;4.73;4.33;;;25.30;49.90;;;;;;5079109;28;20487;-88
2022/09/03 11:24:36;;;;;;;10.13;4.80;;;25.30;50.20;;;;;;5041973;28;20472;-89
2022/09/03 11:27:12;;;;;;;3.87;3.57;;;25.30;50.70;;;;;;5057024;28;20468;-89
2022/09/03 11:29:49;;;;;;;8.23;3.63;;;25.30;51.00;;;;;;5058153;28;20435;-90
2022/09/03 11:32:20;;;;;;;5.77;3.63;;;25.30;51.10;;;;;;5058673;28;20468;-89
2022/09/03 11:34:49;;;;;;;4.13;3.83;;;25.30;51.10;;;;;;5059120;28;21216;-88
2022/09/03 11:37:20;;;;;;;5.47;3.73;;;25.30;51.40;;;;;;5060080;28;20468;-91
2022/09/03 11:39:56;;;;;;;4.30;3.83;;;25.30;51.30;;;;;;5057281;28;20456;-89
2022/09/03 11:42:33;;;;;;;5.93;3.80;;;24.80;52.10;;;;;;5049489;28;21006;-89
2022/09/03 11:45:13;;;;;;;6.47;3.70;;;24.60;53.30;;;;;;5053999;28;20455;-88
2022/09/03 11:47:43;;;;;;;5.83;4.20;;;24.70;53.30;;;;;;5034240;28;20464;-89
2022/09/03 11:50:21;;;;;;;4.50;4.20;;;24.50;51.90;;;;;;5041007;28;20450;-90
2022/09/03 11:52:52;;;;;;;5.20;4.57;;;24.90;53.00;;;;;;5046180;28;20463;-89
2022/09/03 11:55:32;;;;;;;4.90;4.40;;;25.50;52.80;;;;;;5059886;28;21084;-91
2022/09/03 11:58:13;;;;;;;7.30;4.87;;;25.70;50.90;;;;;;5066586;28;20966;-90
2022/09/03 12:00:44;;;;;;;3.70;3.40;;;26.10;49.70;;;;;;5059098;28;20447;-89
2022/09/03 12:03:16;;;;;;;4.20;3.83;;;26.10;47.90;;;;;;5055699;28;20444;-88
2022/09/03 12:05:56;;;;;;;5.83;4.00;;;25.80;47.90;;;;;;5065046;28;20672;-88
2022/09/03 12:08:58;;;;;;;4.00;3.60;;;25.90;50.10;;;;;;5044532;28;20514;-88
2022/09/03 12:11:35;;;;;;;5.50;3.97;;;26.30;49.00;;;;;;5033058;28;20441;-89
2022/09/03 12:14:11;;;;;;;3.17;2.97;;;26.70;49.50;;;;;;5049861;28;20514;-88
2022/09/03 12:17:08;;;;;;;14.13;5.60;;;26.90;47.20;;;;;;5045046;28;20460;-90
2022/09/03 12:19:40;;;;;;;7.87;3.90;;;26.70;45.60;;;;;;5048108;28;20458;-89
2022/09/03 12:22:12;;;;;;;3.30;3.00;;;26.40;45.90;;;;;;5055806;28;20533;-89
2022/09/03 12:24:43;;;;;;;3.77;3.23;;;26.30;44.90;;;;;;5076924;28;20456;-88
2022/09/03 12:27:14;;;;;;;4.03;3.63;;;26.50;45.60;;;;;;5050510;28;20983;-90
2022/09/03 12:29:58;;;;;;;6.10;4.17;;;26.70;46.60;;;;;;5070352;28;20460;-89
2022/09/03 12:32:26;;;;;;;3.23;3.03;;;27.00;45.80;;;;;;5058685;28;20460;-89
2022/09/03 12:34:53;;;;;;;4.13;3.20;;;27.00;43.50;;;;;;5057751;28;20460;-88
2022/09/03 12:37:22;;;;;;;3.60;3.30;;;27.00;44.80;;;;;;5077727;28;20483;-90
2022/09/03 12:39:55;;;;;;;3.10;2.90;;;26.70;42.50;;;;;;5060985;28;20448;-90
2022/09/03 12:42:25;;;;;;;3.83;3.30;;;26.80;42.80;;;;;;5060553;28;20931;-91
2022/09/03 12:44:52;;;;;;;6.60;3.20;;;27.00;44.50;;;;;;5084829;28;20916;-89
2022/09/03 12:47:22;;;;;;;4.80;3.40;;;27.30;42.80;;;;;;5064003;28;20476;-87
2022/09/03 12:49:51;;;;;;;3.87;2.80;;;27.50;41.90;;;;;;5046238;28;20447;-90
2022/09/03 12:52:21;;;;;;;3.70;3.40;;;27.60;41.20;;;;;;5079377;28;20452;-89
2022/09/03 12:54:53;;;;;;;3.40;3.07;;;27.50;41.20;;;;;;5063521;28;20463;-89
2022/09/03 12:57:24;;;;;;;4.77;2.97;;;27.50;41.40;;;;;;5080983;28;20463;-88
2022/09/03 12:59:55;;;;;;;3.60;3.30;;;27.40;41.60;;;;;;5082589;28;20889;-91
2022/09/03 13:02:26;;;;;;;4.80;2.83;;;27.50;42.10;;;;;;5062361;28;20468;-89
2022/09/03 13:04:53;;;;;;;4.30;3.17;;;27.70;41.70;;;;;;5048714;28;20524;-92
2022/09/03 13:07:29;;;;;;;3.23;3.03;;;27.50;39.90;;;;;;5079424;28;20478;-89
2022/09/03 13:10:03;;;;;;;6.03;3.13;;;27.20;39.80;;;;;;5063197;28;20440;-90
2022/09/03 13:12:34;;;;;;;4.47;3.13;;;27.00;40.10;;;;;;5077241;28;20532;-89
2022/09/03 13:15:10;;;;;;;4.20;2.80;;;27.10;40.90;;;;;;5081020;28;20537;-90